createdAt,value
2023-05-06T00:00:22.528Z,16.01
2023-05-06T00:02:49.775Z,15.97
2023-05-06T00:05:18.699Z,15.92
2023-05-06T00:07:48.910Z,15.89
2023-05-06T00:10:17.133Z,15.88
2023-05-06T00:12:44.221Z,15.87
2023-05-06T00:15:12.096Z,15.86
2023-05-06T00:17:39.361Z,15.87
2023-05-06T00:20:07.582Z,15.87
2023-05-06T00:22:34.714Z,15.85
2023-05-06T00:25:01.836Z,15.84
2023-05-06T00:27:28.915Z,15.82
2023-05-06T00:29:56.906Z,15.82
2023-05-06T00:32:24.001Z,15.80
2023-05-06T00:34:51.512Z,15.76
2023-05-06T00:37:18.588Z,15.74
2023-05-06T00:39:45.717Z,15.67
2023-05-06T00:42:12.836Z,15.68
2023-05-06T00:44:40.173Z,15.66
2023-05-06T00:47:08.050Z,15.65
2023-05-06T00:49:35.224Z,15.63
2023-05-06T00:52:03.479Z,15.59
2023-05-06T00:54:31.012Z,15.56
2023-05-06T00:56:58.366Z,15.51
2023-05-06T00:59:25.421Z,15.50
2023-05-06T01:01:54.105Z,15.49
2023-05-06T01:04:22.767Z,15.47
2023-05-06T01:07:19.874Z,15.48
2023-05-06T01:10:08.112Z,15.49
2023-05-06T01:12:48.949Z,15.52
2023-05-06T01:15:23.745Z,15.51
2023-05-06T01:17:53.482Z,15.46
2023-05-06T01:20:22.137Z,15.44
2023-05-06T01:22:50.426Z,15.45
2023-05-06T01:25:22.529Z,15.47
2023-05-06T01:27:50.605Z,15.44
2023-05-06T01:30:19.599Z,15.41
2023-05-06T01:32:57.814Z,15.40
2023-05-06T01:35:35.768Z,15.43
2023-05-06T01:38:11.659Z,15.44
2023-05-06T01:40:41.693Z,15.44
2023-05-06T01:43:10.256Z,15.43
2023-05-06T01:45:39.642Z,15.40
2023-05-06T01:48:07.536Z,15.38
2023-05-06T01:50:35.884Z,15.37
2023-05-06T01:53:03.824Z,15.36
2023-05-06T01:55:32.323Z,15.35
2023-05-06T01:57:59.464Z,15.33
2023-05-06T02:00:26.975Z,15.34
2023-05-06T02:02:54.317Z,15.31
2023-05-06T02:05:22.137Z,15.29
2023-05-06T02:07:53.446Z,15.30
2023-05-06T02:10:21.166Z,15.31
2023-05-06T02:12:55.701Z,15.32
2023-05-06T02:15:23.218Z,15.31
2023-05-06T02:17:50.564Z,15.30
2023-05-06T02:20:17.679Z,15.29
2023-05-06T02:22:45.033Z,15.29
2023-05-06T02:25:12.028Z,15.30
2023-05-06T02:27:39.229Z,15.29
2023-05-06T02:30:07.173Z,15.28
2023-05-06T02:32:34.385Z,15.25
2023-05-06T02:35:01.522Z,15.22
2023-05-06T02:37:28.719Z,15.23
2023-05-06T02:39:55.738Z,15.23
2023-05-06T02:42:22.968Z,15.21
2023-05-06T02:44:50.362Z,15.20
2023-05-06T02:47:17.413Z,15.17
2023-05-06T02:49:44.731Z,15.16
2023-05-06T02:52:12.946Z,15.17
2023-05-06T02:54:40.028Z,15.17
2023-05-06T02:57:07.197Z,15.15
2023-05-06T02:59:35.712Z,15.11
2023-05-06T03:02:03.368Z,15.07
2023-05-06T03:04:30.666Z,15.09
2023-05-06T03:06:57.727Z,15.07
2023-05-06T03:09:24.929Z,15.08
2023-05-06T03:11:52.234Z,15.08
2023-05-06T03:14:20.373Z,15.09
2023-05-06T03:16:47.588Z,15.09
2023-05-06T03:19:15.576Z,15.07
2023-05-06T03:21:44.575Z,15.05
2023-05-06T03:24:11.783Z,15.04
2023-05-06T03:26:39.466Z,15.05
2023-05-06T03:29:07.991Z,15.06
2023-05-06T03:31:35.875Z,15.03
2023-05-06T03:34:03.549Z,15.02
2023-05-06T03:36:31.870Z,15.02
2023-05-06T03:38:59.700Z,15.01
2023-05-06T03:41:27.249Z,15.00
2023-05-06T03:43:55.910Z,14.97
2023-05-06T03:46:26.906Z,14.96
2023-05-06T03:48:54.409Z,14.95
2023-05-06T03:51:21.751Z,14.97
2023-05-06T03:53:48.814Z,14.97
2023-05-06T03:56:18.391Z,14.96
2023-05-06T03:58:49.324Z,14.95
2023-05-06T04:01:18.329Z,14.96
2023-05-06T04:03:46.029Z,14.98
2023-05-06T04:06:13.681Z,14.99
2023-05-06T04:08:40.892Z,15.00
2023-05-06T04:11:08.446Z,15.02
2023-05-06T04:13:37.325Z,15.06
2023-05-06T04:16:09.946Z,15.06
2023-05-06T04:18:41.098Z,15.07
2023-05-06T04:21:14.241Z,15.06
2023-05-06T04:23:44.716Z,15.09
2023-05-06T04:26:16.142Z,15.14
2023-05-06T04:28:44.847Z,15.13
2023-05-06T04:31:14.856Z,15.19
2023-05-06T04:33:48.282Z,15.21
2023-05-06T04:36:19.936Z,15.27
2023-05-06T04:39:10.632Z,15.38
2023-05-06T04:41:39.483Z,15.47
2023-05-06T04:44:07.219Z,15.55
2023-05-06T04:46:34.397Z,15.65
2023-05-06T04:49:02.911Z,15.76
2023-05-06T04:51:30.444Z,15.87
2023-05-06T04:53:58.639Z,15.98
2023-05-06T04:56:26.331Z,16.14
2023-05-06T04:58:54.224Z,16.55
2023-05-06T05:01:22.659Z,17.22
2023-05-06T05:03:50.590Z,18.48
2023-05-06T05:06:20.073Z,19.59
2023-05-06T05:08:47.867Z,20.78
2023-05-06T05:11:15.273Z,21.72
2023-05-06T05:13:42.871Z,23.06
2023-05-06T05:16:09.924Z,22.96
2023-05-06T05:18:40.232Z,23.06
2023-05-06T05:21:14.551Z,21.95
2023-05-06T05:23:41.681Z,20.79
2023-05-06T05:26:10.617Z,20.32
2023-05-06T05:28:38.802Z,20.27
2023-05-06T05:31:07.934Z,21.10
2023-05-06T05:33:36.818Z,22.68
2023-05-06T05:36:08.106Z,23.95
2023-05-06T05:38:36.434Z,24.14
2023-05-06T05:41:04.623Z,24.27
2023-05-06T05:43:31.774Z,23.72
2023-05-06T05:46:00.879Z,24.92
2023-05-06T05:48:32.916Z,24.46
2023-05-06T05:51:02.527Z,24.57
2023-05-06T05:53:29.818Z,24.07
2023-05-06T05:55:57.246Z,24.87
2023-05-06T05:58:24.712Z,24.86
2023-05-06T06:00:53.940Z,25.56
2023-05-06T06:03:21.317Z,25.79
2023-05-06T06:05:49.604Z,25.77
2023-05-06T06:08:18.991Z,25.17
2023-05-06T06:10:47.772Z,25.89
2023-05-06T06:13:19.948Z,25.83
2023-05-06T06:15:47.320Z,25.44
2023-05-06T06:18:15.348Z,25.38
2023-05-06T06:20:42.606Z,25.56
2023-05-06T06:23:09.930Z,25.64
2023-05-06T06:25:37.073Z,25.59
2023-05-06T06:28:04.350Z,25.53
2023-05-06T06:30:35.782Z,25.50
2023-05-06T06:33:03.053Z,25.54
2023-05-06T06:35:30.252Z,24.88
2023-05-06T06:37:57.359Z,24.61
2023-05-06T06:40:24.466Z,25.16
2023-05-06T06:42:51.784Z,25.29
2023-05-06T06:45:42.172Z,25.43
2023-05-06T06:48:09.432Z,25.63
2023-05-06T06:50:36.552Z,25.88
2023-05-06T06:53:05.596Z,25.79
2023-05-06T06:55:33.550Z,25.79
2023-05-06T06:58:00.540Z,25.81
2023-05-06T07:00:27.628Z,25.50
2023-05-06T07:02:54.792Z,25.56
2023-05-06T07:05:21.842Z,25.27
2023-05-06T07:07:49.016Z,25.43
2023-05-06T07:10:16.177Z,25.27
2023-05-06T07:12:43.304Z,25.39
2023-05-06T07:15:11.062Z,24.95
2023-05-06T07:17:38.338Z,25.37
2023-05-06T07:20:06.027Z,25.39
2023-05-06T07:22:33.133Z,25.27
2023-05-06T07:25:00.430Z,25.35
2023-05-06T07:27:30.480Z,25.03
2023-05-06T07:29:57.674Z,24.75
2023-05-06T07:32:24.883Z,23.65
2023-05-06T07:34:52.127Z,23.75
2023-05-06T07:37:19.149Z,23.99
2023-05-06T07:39:46.783Z,23.88
2023-05-06T07:42:13.891Z,23.90
2023-05-06T07:44:40.941Z,24.12
2023-05-06T07:47:08.368Z,24.27
2023-05-06T07:49:35.646Z,24.34
2023-05-06T07:52:03.777Z,24.17
2023-05-06T07:54:32.328Z,23.85
2023-05-06T07:56:59.355Z,23.99
2023-05-06T07:59:26.598Z,24.23
2023-05-06T08:01:53.597Z,24.01
2023-05-06T08:04:21.093Z,24.41
2023-05-06T08:06:48.097Z,24.32
2023-05-06T08:09:22.733Z,23.98
2023-05-06T08:11:50.954Z,23.88
2023-05-06T08:14:18.204Z,24.08
2023-05-06T08:16:45.529Z,23.99
2023-05-06T08:19:12.566Z,24.11
2023-05-06T08:21:39.700Z,24.25
2023-05-06T08:24:07.006Z,24.02
2023-05-06T08:26:34.192Z,23.77
2023-05-06T08:29:03.270Z,23.83
2023-05-06T08:31:30.910Z,23.73
2023-05-06T08:33:57.967Z,23.61
2023-05-06T08:36:25.497Z,23.49
2023-05-06T08:38:52.713Z,23.50
2023-05-06T08:41:21.982Z,23.62
2023-05-06T08:43:50.712Z,23.50
2023-05-06T08:46:18.442Z,23.43
2023-05-06T08:48:46.093Z,23.41
2023-05-06T08:51:17.590Z,23.52
2023-05-06T08:53:48.971Z,23.32
2023-05-06T08:56:16.964Z,23.22
2023-05-06T08:58:48.692Z,23.14
2023-05-06T09:01:18.903Z,22.93
2023-05-06T09:03:47.296Z,22.70
2023-05-06T09:06:14.343Z,22.41
2023-05-06T09:08:41.504Z,21.73
2023-05-06T09:11:29.536Z,21.35
2023-05-06T09:14:13.387Z,20.87
2023-05-06T09:16:43.615Z,20.31
2023-05-06T09:19:11.813Z,20.09
2023-05-06T09:21:44.091Z,20.13
2023-05-06T09:24:13.961Z,20.05
2023-05-06T09:26:43.253Z,19.87
2023-05-06T09:29:11.108Z,19.89
2023-05-06T09:31:46.299Z,19.97
2023-05-06T09:34:15.241Z,20.21
2023-05-06T09:36:42.763Z,19.99
2023-05-06T09:39:10.324Z,19.88
2023-05-06T09:41:38.080Z,19.71
2023-05-06T09:44:06.395Z,19.92
2023-05-06T09:46:33.965Z,20.09
2023-05-06T09:49:01.688Z,20.24
2023-05-06T09:51:31.234Z,20.26
2023-05-06T09:53:59.421Z,20.20
2023-05-06T09:56:27.102Z,19.98
2023-05-06T09:58:56.283Z,19.99
2023-05-06T10:01:35.326Z,20.31
2023-05-06T10:04:08.711Z,20.13
2023-05-06T10:06:39.942Z,20.13
2023-05-06T10:09:10.909Z,20.13
2023-05-06T10:11:39.241Z,19.87
2023-05-06T10:14:07.328Z,19.75
2023-05-06T10:16:36.570Z,19.76
2023-05-06T10:19:06.851Z,19.60
2023-05-06T10:21:39.689Z,19.58
2023-05-06T10:24:11.507Z,19.86
2023-05-06T10:26:39.864Z,20.09
2023-05-06T10:29:11.198Z,20.16
2023-05-06T10:31:54.146Z,20.11
2023-05-06T10:34:23.131Z,20.10
2023-05-06T10:36:58.004Z,20.42
2023-05-06T10:39:27.619Z,20.54
2023-05-06T10:41:55.278Z,20.34
2023-05-06T10:45:05.016Z,20.15
2023-05-06T10:47:57.210Z,19.83
2023-05-06T10:50:26.392Z,19.93
2023-05-06T10:52:56.340Z,20.09
2023-05-06T10:55:33.701Z,20.05
2023-05-06T10:58:04.146Z,19.94
2023-05-06T11:00:49.158Z,20.15
2023-05-06T11:03:18.981Z,19.96
2023-05-06T11:05:54.872Z,20.09
2023-05-06T11:08:26.797Z,20.25
2023-05-06T11:10:54.930Z,20.29
2023-05-06T11:13:30.424Z,20.14
2023-05-06T11:15:58.924Z,20.26
2023-05-06T11:18:26.924Z,20.36
2023-05-06T11:21:04.876Z,20.36
2023-05-06T11:23:58.195Z,20.52
2023-05-06T11:26:25.418Z,20.61
2023-05-06T11:28:52.704Z,20.61
2023-05-06T11:31:22.401Z,20.73
2023-05-06T11:33:55.273Z,20.69
2023-05-06T11:36:23.049Z,20.76
2023-05-06T11:38:52.791Z,20.68
2023-05-06T11:41:22.402Z,20.77
2023-05-06T11:43:51.085Z,20.77
2023-05-06T11:46:24.094Z,20.51
2023-05-06T11:48:51.300Z,20.45
2023-05-06T11:51:25.016Z,20.39
2023-05-06T11:53:53.199Z,20.46
2023-05-06T11:56:20.300Z,20.62
2023-05-06T11:58:47.492Z,20.65
2023-05-06T12:01:14.644Z,20.73
2023-05-06T12:03:41.830Z,20.63
2023-05-06T12:06:09.136Z,20.63
2023-05-06T12:08:37.229Z,20.71
2023-05-06T12:11:08.191Z,20.74
2023-05-06T12:13:40.858Z,20.77
2023-05-06T12:16:08.704Z,20.60
2023-05-06T12:18:36.413Z,20.62
2023-05-06T12:21:03.863Z,20.37
2023-05-06T12:23:31.350Z,20.47
2023-05-06T12:26:09.260Z,20.24
2023-05-06T12:28:37.368Z,20.13
2023-05-06T12:31:21.625Z,20.17
2023-05-06T12:33:50.543Z,20.19
2023-05-06T12:36:19.172Z,20.37
2023-05-06T12:38:52.813Z,20.27
2023-05-06T12:41:20.882Z,20.29
2023-05-06T12:43:48.333Z,20.60
2023-05-06T12:46:16.917Z,20.70
2023-05-06T12:49:00.221Z,20.72
2023-05-06T12:51:27.763Z,20.82
2023-05-06T12:53:55.076Z,20.89
2023-05-06T12:56:22.742Z,20.97
2023-05-06T12:59:04.391Z,21.18
2023-05-06T13:01:32.099Z,21.16
2023-05-06T13:03:59.269Z,21.14
2023-05-06T13:06:26.374Z,21.14
2023-05-06T13:08:53.388Z,21.28
2023-05-06T13:11:22.553Z,21.40
2023-05-06T13:13:49.609Z,21.37
2023-05-06T13:16:17.266Z,21.48
2023-05-06T13:18:44.480Z,21.35
2023-05-06T13:21:13.251Z,21.34
2023-05-06T13:23:47.037Z,21.14
2023-05-06T13:26:15.034Z,20.74
2023-05-06T13:28:42.148Z,20.64
2023-05-06T13:31:09.509Z,20.52
2023-05-06T13:33:36.861Z,20.24
2023-05-06T13:36:05.393Z,20.07
2023-05-06T13:38:33.009Z,20.35
2023-05-06T13:41:00.564Z,20.51
2023-05-06T13:43:27.670Z,20.56
2023-05-06T13:45:54.914Z,20.31
2023-05-06T13:48:22.275Z,20.29
2023-05-06T13:50:49.687Z,20.16
2023-05-06T13:53:17.077Z,20.29
2023-05-06T13:55:44.226Z,20.31
2023-05-06T13:58:11.743Z,20.16
2023-05-06T14:00:41.942Z,20.14
2023-05-06T14:03:09.973Z,20.37
2023-05-06T14:05:37.132Z,20.51
2023-05-06T14:08:04.515Z,20.70
2023-05-06T14:10:31.554Z,20.76
2023-05-06T14:12:58.844Z,20.79
2023-05-06T14:15:26.259Z,20.85
2023-05-06T14:17:53.421Z,20.87
2023-05-06T14:20:20.814Z,20.83
2023-05-06T14:22:48.389Z,20.90
2023-05-06T14:25:15.455Z,21.02
2023-05-06T14:27:42.731Z,20.79
2023-05-06T14:30:10.217Z,20.49
2023-05-06T14:32:37.786Z,20.42
2023-05-06T14:35:05.566Z,20.41
2023-05-06T14:37:32.740Z,20.41
2023-05-06T14:40:00.000Z,20.24
2023-05-06T14:42:27.196Z,20.06
2023-05-06T14:44:55.209Z,20.08
2023-05-06T14:47:22.612Z,20.01
2023-05-06T14:49:50.604Z,20.05
2023-05-06T14:52:17.858Z,20.12
2023-05-06T14:54:45.042Z,20.08
2023-05-06T14:57:12.122Z,19.97
2023-05-06T14:59:39.336Z,19.94
2023-05-06T15:02:09.370Z,19.96
2023-05-06T15:04:37.349Z,19.83
2023-05-06T15:07:04.722Z,19.76
2023-05-06T15:09:31.943Z,19.70
2023-05-06T15:11:59.298Z,19.75
2023-05-06T15:16:57.387Z,19.51
2023-05-06T15:19:24.839Z,19.56
2023-05-06T15:21:52.071Z,19.52
2023-05-06T15:24:19.373Z,19.55
2023-05-06T15:26:46.598Z,19.62
2023-05-06T15:29:13.769Z,19.49
2023-05-06T15:31:43.824Z,19.45
2023-05-06T15:34:12.546Z,19.53
2023-05-06T15:36:42.909Z,19.63
2023-05-06T15:39:10.185Z,19.69
2023-05-06T15:41:38.766Z,19.64
2023-05-06T15:44:06.596Z,19.60
2023-05-06T15:46:33.878Z,19.57
2023-05-06T15:49:31.913Z,19.59
2023-05-06T15:51:49.042Z,19.64
2023-05-06T15:54:19.602Z,19.63
2023-05-06T15:56:47.141Z,19.72
2023-05-06T15:59:14.398Z,19.67
2023-05-06T16:04:16.626Z,19.57
2023-05-06T16:06:43.879Z,19.49
2023-05-06T16:09:11.559Z,19.37
2023-05-06T16:11:38.870Z,19.30
2023-05-06T16:14:06.258Z,19.31
2023-05-06T16:16:34.052Z,19.23
2023-05-06T16:19:04.130Z,19.20
2023-05-06T16:21:32.017Z,19.19
2023-05-06T16:24:01.477Z,19.13
2023-05-06T16:26:28.965Z,19.21
2023-05-06T16:28:56.397Z,19.29
2023-05-06T16:31:24.027Z,19.41
2023-05-06T16:33:51.210Z,19.47
2023-05-06T16:36:18.581Z,19.45
2023-05-06T16:38:45.806Z,19.42
2023-05-06T16:41:13.229Z,19.42
2023-05-06T16:43:40.513Z,19.50
2023-05-06T16:46:08.059Z,19.52
2023-05-06T16:48:35.515Z,19.54
2023-05-06T16:51:04.507Z,19.49
2023-05-06T16:53:32.158Z,19.55
2023-05-06T16:56:03.497Z,19.58
2023-05-06T16:58:30.814Z,19.60
2023-05-06T17:00:58.065Z,19.59
2023-05-06T17:03:26.387Z,19.58
2023-05-06T17:05:54.520Z,19.57
2023-05-06T17:08:24.189Z,19.51
2023-05-06T17:10:51.678Z,19.43
2023-05-06T17:13:19.033Z,19.42
2023-05-06T17:15:46.190Z,19.46
2023-05-06T17:18:13.352Z,19.46
2023-05-06T17:20:54.553Z,19.41
2023-05-06T17:23:23.766Z,19.46
2023-05-06T17:25:51.486Z,19.51
2023-05-06T17:28:19.062Z,19.57
2023-05-06T17:30:46.946Z,19.58
2023-05-06T17:33:14.128Z,19.47
2023-05-06T17:35:41.277Z,19.24
2023-05-06T17:38:13.304Z,19.04
2023-05-06T17:40:41.028Z,18.81
2023-05-06T17:43:08.460Z,18.71
2023-05-06T17:45:36.036Z,18.65
2023-05-06T17:48:03.368Z,18.64
2023-05-06T17:50:30.646Z,18.64
2023-05-06T17:52:57.937Z,18.62
2023-05-06T17:55:25.232Z,18.61
2023-05-06T17:57:52.948Z,18.60
2023-05-06T18:00:20.405Z,18.60
2023-05-06T18:02:47.972Z,18.59
2023-05-06T18:05:17.609Z,18.60
2023-05-06T18:07:45.013Z,18.71
2023-05-06T18:11:09.185Z,18.85
2023-05-06T18:13:36.883Z,19.01
2023-05-06T18:16:04.898Z,19.08
2023-05-06T18:18:31.990Z,19.19
2023-05-06T18:20:59.139Z,19.26
2023-05-06T18:23:26.631Z,19.31
2023-05-06T18:25:54.117Z,19.38
2023-05-06T18:28:21.121Z,19.33
2023-05-06T18:30:48.103Z,19.30
2023-05-06T18:33:15.234Z,19.29
2023-05-06T18:35:42.369Z,19.25
2023-05-06T18:38:11.038Z,19.22
2023-05-06T18:40:38.664Z,19.25
2023-05-06T18:43:08.332Z,19.24
2023-05-06T18:45:35.631Z,19.18
2023-05-06T18:48:02.945Z,19.14
2023-05-06T18:50:29.958Z,19.14
2023-05-06T18:52:57.086Z,19.08
2023-05-06T18:55:24.281Z,19.02
2023-05-06T18:57:51.406Z,18.98
2023-05-06T19:00:18.472Z,18.93
2023-05-06T19:02:46.019Z,18.90
2023-05-06T19:05:13.622Z,18.88
2023-05-06T19:07:41.617Z,18.85
2023-05-06T19:10:09.196Z,18.81
2023-05-06T19:12:36.505Z,18.78
2023-05-06T19:15:03.764Z,18.76
2023-05-06T19:17:30.919Z,18.75
2023-05-06T19:19:57.966Z,18.73
2023-05-06T19:22:25.269Z,18.68
2023-05-06T19:24:52.376Z,18.70
2023-05-06T19:27:19.509Z,18.67
2023-05-06T19:29:46.818Z,18.63
2023-05-06T19:32:14.050Z,18.64
2023-05-06T19:34:41.081Z,18.62
2023-05-06T19:37:08.469Z,18.62
2023-05-06T19:39:35.564Z,18.59
2023-05-06T19:42:02.961Z,18.56
2023-05-06T19:44:30.054Z,18.52
2023-05-06T19:46:57.169Z,18.50
2023-05-06T19:49:24.276Z,18.47
2023-05-06T19:51:51.481Z,18.45
2023-05-06T19:54:19.548Z,18.40
2023-05-06T19:56:46.840Z,18.43
2023-05-06T19:59:14.025Z,18.46
2023-05-06T20:01:43.966Z,18.47
2023-05-06T20:04:12.220Z,18.44
2023-05-06T20:06:39.303Z,18.40
2023-05-06T20:09:06.498Z,18.38
2023-05-06T20:11:33.836Z,18.40
2023-05-06T20:14:01.613Z,18.37
2023-05-06T20:16:28.976Z,18.36
2023-05-06T20:18:56.724Z,18.33
2023-05-06T20:21:23.951Z,18.30
2023-05-06T20:23:51.421Z,18.28
2023-05-06T20:26:18.880Z,18.27
2023-05-06T20:28:46.636Z,18.24
2023-05-06T20:31:13.694Z,18.20
2023-05-06T20:33:41.086Z,18.18
2023-05-06T20:36:08.632Z,18.17
2023-05-06T20:38:35.987Z,18.15
2023-05-06T20:41:03.250Z,18.15
2023-05-06T20:43:32.178Z,18.13
2023-05-06T20:45:59.459Z,18.10
2023-05-06T20:48:27.940Z,18.08
2023-05-06T20:50:57.087Z,18.09
2023-05-06T20:53:24.414Z,18.09
2023-05-06T20:55:51.845Z,18.04
2023-05-06T20:58:19.035Z,18.03
2023-05-06T21:00:46.177Z,18.04
2023-05-06T21:03:13.521Z,18.04
2023-05-06T21:05:40.687Z,18.04
2023-05-06T21:08:07.925Z,17.99
2023-05-06T21:10:37.972Z,17.97
2023-05-06T21:13:05.147Z,17.95
2023-05-06T21:15:34.584Z,17.95
2023-05-06T21:18:02.076Z,17.93
2023-05-06T21:20:29.324Z,17.92
2023-05-06T21:22:56.626Z,17.92
2023-05-06T21:25:23.828Z,17.90
2023-05-06T21:27:50.880Z,17.93
2023-05-06T21:30:17.992Z,17.90
2023-05-06T21:32:45.270Z,17.88
2023-05-06T21:35:12.588Z,17.89
2023-05-06T21:37:39.735Z,17.92
2023-05-06T21:40:07.349Z,17.95
2023-05-06T21:42:34.447Z,17.98
2023-05-06T21:45:01.503Z,18.00
2023-05-06T21:47:28.701Z,18.06
2023-05-06T21:49:55.770Z,18.04
2023-05-06T21:52:22.978Z,18.03
2023-05-06T21:54:50.032Z,18.02
2023-05-06T21:57:17.067Z,18.02
2023-05-06T21:59:44.164Z,18.01
2023-05-06T22:02:11.213Z,18.05
2023-05-06T22:04:38.451Z,18.04
2023-05-06T22:07:05.772Z,18.05
2023-05-06T22:09:32.805Z,18.05
2023-05-06T22:12:00.009Z,18.04
2023-05-06T22:14:37.392Z,18.04
2023-05-06T22:17:08.195Z,18.03
2023-05-06T22:19:35.229Z,17.98
2023-05-06T22:22:02.835Z,17.97
2023-05-06T22:24:29.897Z,18.01
2023-05-06T22:26:57.039Z,17.98
2023-05-06T22:29:24.113Z,17.96
2023-05-06T22:31:51.226Z,17.88
2023-05-06T22:34:18.333Z,17.71
2023-05-06T22:36:45.705Z,17.60
2023-05-06T22:39:12.960Z,17.51
2023-05-06T22:41:40.139Z,17.48
2023-05-06T22:44:07.183Z,17.48
2023-05-06T22:46:34.389Z,17.48
2023-05-06T22:49:01.516Z,17.41
2023-05-06T22:51:28.654Z,17.31
2023-05-06T22:53:55.808Z,17.20
2023-05-06T22:56:22.884Z,17.27
2023-05-06T22:58:50.056Z,17.40
2023-05-06T23:01:18.122Z,17.49
2023-05-06T23:03:45.217Z,17.58
2023-05-06T23:06:12.371Z,17.65
2023-05-06T23:08:39.450Z,17.67
2023-05-06T23:11:06.632Z,17.69
2023-05-06T23:13:36.585Z,17.71
2023-05-06T23:16:04.022Z,17.71
2023-05-06T23:18:31.081Z,17.75
2023-05-06T23:20:58.219Z,17.79
2023-05-06T23:23:25.461Z,17.82
2023-05-06T23:25:54.050Z,17.81
2023-05-06T23:28:21.384Z,17.80
2023-05-06T23:30:48.815Z,17.78
2023-05-06T23:33:15.957Z,17.84
2023-05-06T23:35:43.134Z,17.86
2023-05-06T23:38:10.310Z,17.87
2023-05-06T23:40:37.464Z,17.92
2023-05-06T23:43:07.293Z,17.94
2023-05-06T23:45:34.276Z,17.97
2023-05-06T23:48:01.670Z,18.00
2023-05-06T23:50:28.763Z,18.01
2023-05-06T23:52:56.071Z,18.00
2023-05-06T23:55:23.305Z,18.03
2023-05-06T23:57:50.460Z,17.99
